Time;durP1;ratioP1;P1;durP2;ratioP2;P2;SDS_P1;SDS_P2;PMS_P1;PMS_P2;Temp;Humidity;BMP_temperature;BMP_pressure;BME280_temperature;BME280_humidity;BME280_pressure;Samples;Min_cycle;Max_cycle;Signal;HPM_P1;HPM_P2
2022/06/17 00:00:13;;;;;;;;;;;24.80;53.10;;;;;;4900236;29;20364;-68
2022/06/17 00:02:39;;;;;;;;;;;24.90;52.50;;;;;;4900241;29;19911;-68
2022/06/17 00:05:04;;;;;;;;;;;25.00;52.10;;;;;;4900186;29;19973;-68
2022/06/17 00:07:30;;;;;;;;;;;25.10;51.90;;;;;;4900179;29;19915;-69
2022/06/17 00:09:55;;;;;;;;;;;25.10;51.60;;;;;;4900240;29;19915;-69
2022/06/17 00:12:21;;;;;;;;;;;25.20;51.00;;;;;;4899951;29;20300;-68
2022/06/17 00:17:30;;;;;;;;;;;25.20;51.00;;;;;;4899884;29;19958;-69
2022/06/17 00:19:56;;;;;;;;;;;25.10;51.40;;;;;;4899835;29;20280;-69
2022/06/17 00:22:22;;;;;;;;;;;25.00;51.30;;;;;;4899576;29;20018;-68
2022/06/17 00:24:48;;;;;;;;;;;25.00;51.30;;;;;;4899782;29;19994;-68
2022/06/17 00:27:14;;;;;;;;;;;24.90;51.30;;;;;;4900151;29;19912;-66
2022/06/17 00:29:40;;;;;;;;;;;24.90;51.50;;;;;;4899462;29;19915;-69
2022/06/17 00:32:05;;;;;;;;;;;24.90;51.30;;;;;;4899821;29;19912;-65
2022/06/17 00:34:31;;;;;;;;;;;24.90;51.60;;;;;;4899714;29;19983;-66
2022/06/17 00:36:59;;;;;;;;;;;24.90;51.40;;;;;;4899429;29;19982;-68
2022/06/17 00:39:27;;;;;;;;;;;24.90;51.50;;;;;;4899428;29;20279;-67
2022/06/17 00:41:54;;;;;;;;;;;24.90;51.80;;;;;;4899342;29;20393;-69
2022/06/17 00:44:42;;;;;;;;;;;24.90;51.40;;;;;;4899407;29;19916;-67
2022/06/17 00:47:16;;;;;;;;;;;24.90;51.00;;;;;;4899454;29;19918;-67
2022/06/17 00:49:55;;;;;;;;;;;24.90;51.00;;;;;;4898972;29;19919;-69
2022/06/17 00:52:27;;;;;;;;;;;25.00;50.40;;;;;;4899155;29;19911;-66
2022/06/17 00:54:56;;;;;;;;;;;25.10;50.40;;;;;;4899188;29;19923;-65
2022/06/17 00:57:25;;;;;;;;;;;25.00;50.30;;;;;;4899044;29;19919;-66
2022/06/17 01:00:20;;;;;;;;;;;24.90;50.60;;;;;;4899294;29;19919;-70
2022/06/17 01:03:06;;;;;;;;;;;24.90;50.80;;;;;;4890770;29;20365;-70
2022/06/17 01:05:35;;;;;;;;;;;24.70;51.60;;;;;;4899294;29;19911;-64
2022/06/17 01:08:12;;;;;;;;;;;24.60;51.90;;;;;;4899257;29;19918;-68
2022/06/17 01:10:40;;;;;;;;;;;24.70;51.70;;;;;;4898713;29;19911;-65
2022/06/17 01:13:06;;;;;;;;;;;24.80;51.40;;;;;;4898801;29;19989;-67
2022/06/17 01:15:33;;;;;;;;;;;24.80;51.50;;;;;;4898567;29;19919;-64
2022/06/17 01:17:59;;;;;;;;;;;24.60;51.70;;;;;;4898739;29;20002;-64
2022/06/17 01:20:26;;;;;;;;;;;24.60;52.10;;;;;;4898655;29;20006;-68
2022/06/17 01:22:52;;;;;;;;;;;24.60;51.80;;;;;;4898754;29;19928;-66
2022/06/17 01:25:35;;;;;;;;;;;24.60;51.80;;;;;;4898808;29;20416;-64
2022/06/17 01:28:10;;;;;;;;;;;24.60;52.10;;;;;;4898754;29;19919;-64
2022/06/17 01:30:42;;;;;;;;;;;24.60;52.00;;;;;;4898767;29;19919;-65
2022/06/17 01:33:07;;;;;;;;;;;24.70;51.50;;;;;;4898639;29;19916;-65
2022/06/17 01:35:54;;;;;;;;;;;24.80;51.80;;;;;;4898482;29;20352;-68
2022/06/17 01:38:21;;;;;;;;;;;24.80;50.50;;;;;;4898410;29;20002;-63
2022/06/17 01:40:46;;;;;;;;;;;24.80;51.00;;;;;;4898498;29;19943;-68
2022/06/17 01:43:14;;;;;;;;;;;24.90;50.80;;;;;;4898641;29;20336;-65
2022/06/17 01:45:42;;;;;;;;;;;24.80;51.00;;;;;;4898635;29;19912;-67
2022/06/17 01:48:09;;;;;;;;;;;24.80;51.20;;;;;;4898638;29;19911;-66
2022/06/17 01:50:36;;;;;;;;;;;24.90;50.70;;;;;;4898766;29;20356;-67
2022/06/17 01:53:05;;;;;;;;;;;24.80;50.60;;;;;;4898385;29;20336;-68
2022/06/17 01:55:57;;;;;;;;;;;24.80;50.90;;;;;;4898568;29;19916;-66
2022/06/17 01:58:35;;;;;;;;;;;24.80;51.00;;;;;;4896352;29;19911;-69
2022/06/17 02:01:02;;;;;;;;;;;24.80;51.10;;;;;;4898311;29;19918;-69
2022/06/17 02:03:30;;;;;;;;;;;24.80;50.60;;;;;;4898444;29;19912;-68
2022/06/17 02:06:16;;;;;;;;;;;24.80;50.40;;;;;;4898716;29;20341;-70
2022/06/17 02:08:42;;;;;;;;;;;24.80;50.00;;;;;;4891476;29;19915;-67
2022/06/17 02:11:07;;;;;;;;;;;24.80;49.90;;;;;;4898221;29;19968;-68
2022/06/17 02:13:33;;;;;;;;;;;24.80;49.60;;;;;;4898316;29;20290;-66
2022/06/17 02:16:01;;;;;;;;;;;24.80;49.50;;;;;;4898034;29;19967;-68
2022/06/17 02:18:27;;;;;;;;;;;24.80;49.70;;;;;;4898189;29;19919;-69
2022/06/17 02:20:55;;;;;;;;;;;24.90;49.30;;;;;;4898819;29;19923;-70
2022/06/17 02:23:22;;;;;;;;;;;24.80;49.40;;;;;;4902077;29;19911;-69
2022/06/17 02:25:49;;;;;;;;;;;24.80;49.60;;;;;;4901897;29;19923;-66
2022/06/17 02:28:16;;;;;;;;;;;24.80;49.70;;;;;;4901729;29;19918;-67
2022/06/17 02:30:42;;;;;;;;;;;24.80;50.00;;;;;;4901804;29;20010;-66
2022/06/17 02:33:09;;;;;;;;;;;24.80;50.00;;;;;;4902108;29;20392;-65
2022/06/17 02:35:35;;;;;;;;;;;24.70;49.90;;;;;;4901961;29;19915;-66
2022/06/17 02:38:00;;;;;;;;;;;24.70;50.10;;;;;;4901732;29;20370;-66
2022/06/17 02:40:41;;;;;;;;;;;24.60;49.80;;;;;;4901621;29;19919;-69
2022/06/17 02:43:11;;;;;;;;;;;24.60;49.80;;;;;;4901671;29;19938;-64
2022/06/17 02:45:42;;;;;;;;;;;24.60;49.80;;;;;;4901612;29;19941;-67
2022/06/17 02:48:15;;;;;;;;;;;24.60;49.60;;;;;;4901659;29;19917;-69
2022/06/17 02:50:41;;;;;;;;;;;24.70;49.20;;;;;;4901525;29;19918;-67
2022/06/17 02:53:07;;;;;;;;;;;24.80;48.70;;;;;;4900473;29;19911;-66
2022/06/17 02:55:38;;;;;;;;;;;24.80;48.60;;;;;;4901234;29;19971;-70
2022/06/17 02:58:23;;;;;;;;;;;24.90;48.10;;;;;;4901653;29;20006;-68
2022/06/17 03:00:50;;;;;;;;;;;24.90;48.00;;;;;;4901279;29;19911;-68
2022/06/17 03:03:16;;;;;;;;;;;24.90;48.20;;;;;;4901243;29;19911;-66
2022/06/17 03:05:43;;;;;;;;;;;24.90;48.30;;;;;;4901262;29;19912;-67
2022/06/17 03:08:27;;;;;;;;;;;24.90;48.30;;;;;;4901370;29;20252;-69
2022/06/17 03:10:53;;;;;;;;;;;24.90;48.80;;;;;;4901486;29;19912;-65
2022/06/17 03:13:36;;;;;;;;;;;24.80;48.80;;;;;;4901130;29;19911;-68
2022/06/17 03:16:03;;;;;;;;;;;24.80;48.40;;;;;;4901363;29;19919;-67
2022/06/17 03:18:29;;;;;;;;;;;24.80;48.60;;;;;;4901116;29;20018;-67
2022/06/17 03:20:55;;;;;;;;;;;24.80;48.10;;;;;;4901167;29;19915;-70
2022/06/17 03:23:33;;;;;;;;;;;24.80;48.70;;;;;;4900907;29;19955;-64
2022/06/17 03:26:06;;;;;;;;;;;24.80;49.20;;;;;;4900920;29;19912;-65
2022/06/17 03:28:38;;;;;;;;;;;24.80;48.70;;;;;;4900658;29;19919;-67
2022/06/17 03:31:10;;;;;;;;;;;24.70;48.70;;;;;;4900759;29;19947;-65
2022/06/17 03:33:38;;;;;;;;;;;24.70;49.00;;;;;;4900782;29;19912;-65
2022/06/17 03:36:08;;;;;;;;;;;24.70;49.20;;;;;;4900572;29;19968;-63
2022/06/17 03:38:40;;;;;;;;;;;24.80;49.10;;;;;;4900521;29;19911;-67
2022/06/17 03:41:18;;;;;;;;;;;24.80;48.30;;;;;;4900459;29;19963;-63
2022/06/17 03:43:47;;;;;;;;;;;24.80;48.20;;;;;;4900403;29;19919;-65
2022/06/17 03:46:13;;;;;;;;;;;24.80;48.10;;;;;;4900631;29;20010;-64
2022/06/17 03:48:51;;;;;;;;;;;24.90;47.30;;;;;;4900187;29;20349;-67
2022/06/17 03:51:18;;;;;;;;;;;24.90;48.00;;;;;;4900295;29;19915;-65
2022/06/17 03:53:45;;;;;;;;;;;24.90;47.70;;;;;;4900235;29;19935;-65
2022/06/17 03:56:13;;;;;;;;;;;24.80;48.40;;;;;;4900364;29;19919;-63
2022/06/17 03:58:39;;;;;;;;;;;24.80;47.60;;;;;;4899989;29;19919;-64
2022/06/17 04:01:11;;;;;;;;;;;24.90;47.40;;;;;;4901707;29;19918;-67
2022/06/17 04:03:37;;;;;;;;;;;24.70;48.50;;;;;;4904706;29;19912;-64
2022/06/17 04:06:11;;;;;;;;;;;24.80;48.70;;;;;;4904940;29;19912;-66
2022/06/17 04:08:49;;;;;;;;;;;24.70;48.30;;;;;;4902758;29;19915;-67
2022/06/17 04:11:15;;;;;;;;;;;24.80;47.60;;;;;;4902756;29;19911;-66
2022/06/17 04:13:41;;;;;;;;;;;24.80;47.10;;;;;;4902467;29;19912;-66
2022/06/17 04:16:20;;;;;;;;;;;24.90;47.50;;;;;;4900251;29;20362;-67
2022/06/17 04:18:45;;;;;;;;;;;24.90;46.30;;;;;;4900301;29;19960;-65
2022/06/17 04:21:13;;;;;;;;;;;24.90;46.20;;;;;;4899741;29;20325;-66
2022/06/17 04:23:39;;;;;;;;;;;24.90;46.50;;;;;;4899942;29;20022;-66
2022/06/17 04:26:04;;;;;;;;;;;24.90;46.70;;;;;;4900224;29;20372;-66
2022/06/17 04:28:31;;;;;;;;;;;24.80;46.80;;;;;;4899596;29;19919;-67
2022/06/17 04:31:01;;;;;;;;;;;24.90;47.10;;;;;;4899762;29;19912;-65
2022/06/17 04:33:29;;;;;;;;;;;24.90;46.80;;;;;;4899517;29;19911;-66
2022/06/17 04:35:59;;;;;;;;;;;24.90;46.20;;;;;;4899589;29;20010;-66
2022/06/17 04:38:25;;;;;;;;;;;24.90;47.40;;;;;;4899548;29;20085;-67
2022/06/17 04:40:54;;;;;;;;;;;24.90;47.00;;;;;;4899629;29;20002;-67
2022/06/17 04:43:23;;;;;;;;;;;25.00;46.70;;;;;;4898883;29;19919;-67
2022/06/17 04:45:52;;;;;;;;;;;25.00;47.10;;;;;;4899239;29;19911;-68
2022/06/17 04:48:18;;;;;;;;;;;25.10;46.60;;;;;;4899390;29;20028;-67
2022/06/17 04:50:43;;;;;;;;;;;25.00;47.30;;;;;;4899547;29;19915;-67
2022/06/17 04:53:09;;;;;;;;;;;25.00;47.50;;;;;;4899217;29;19983;-66
2022/06/17 04:55:36;;;;;;;;;;;25.00;47.30;;;;;;4899466;29;19922;-65
2022/06/17 04:58:02;;;;;;;;;;;25.00;47.40;;;;;;4899220;29;19915;-65
2022/06/17 05:00:28;;;;;;;;;;;25.10;47.10;;;;;;4898927;29;19911;-66
2022/06/17 05:02:54;;;;;;;;;;;25.00;47.60;;;;;;4899287;29;20403;-66
2022/06/17 05:05:37;;;;;;;;;;;25.10;47.90;;;;;;4897976;29;19919;-67
2022/06/17 05:08:05;;;;;;;;;;;25.10;48.40;;;;;;4899239;29;19911;-65
2022/06/17 05:10:33;;;;;;;;;;;25.10;48.60;;;;;;4899235;29;19916;-65
2022/06/17 05:12:59;;;;;;;;;;;25.00;48.40;;;;;;4897726;29;19918;-67
2022/06/17 05:15:24;;;;;;;;;;;25.10;49.10;;;;;;4898846;29;19915;-66
2022/06/17 05:17:50;;;;;;;;;;;25.20;48.60;;;;;;4898961;29;19967;-65
2022/06/17 05:20:17;;;;;;;;;;;25.30;48.50;;;;;;4899741;29;19911;-65
2022/06/17 05:22:47;;;;;;;;;;;25.40;47.80;;;;;;4899467;29;20280;-65
2022/06/17 05:25:20;;;;;;;;;;;25.40;47.40;;;;;;4899060;29;19919;-65
2022/06/17 05:27:46;;;;;;;;;;;25.50;47.20;;;;;;4898690;29;19950;-64
2022/06/17 05:30:12;;;;;;;;;;;25.60;47.30;;;;;;4898721;29;19950;-65
2022/06/17 05:32:39;;;;;;;;;;;25.60;48.40;;;;;;4898889;29;19959;-65
2022/06/17 05:35:04;;;;;;;;;;;25.60;48.50;;;;;;4898744;29;19912;-65
2022/06/17 05:37:30;;;;;;;;;;;25.80;47.60;;;;;;4898587;29;19923;-69
2022/06/17 05:39:55;;;;;;;;;;;25.80;47.20;;;;;;4897429;29;20451;-68
2022/06/17 05:42:21;;;;;;;;;;;25.90;46.80;;;;;;4898656;29;19915;-73
2022/06/17 05:44:47;;;;;;;;;;;26.00;47.10;;;;;;4898220;29;19912;-69
2022/06/17 05:47:12;;;;;;;;;;;26.10;46.40;;;;;;4898388;29;19967;-74
2022/06/17 05:49:39;;;;;;;;;;;26.10;46.00;;;;;;4898608;29;19912;-67
2022/06/17 05:52:05;;;;;;;;;;;26.20;45.80;;;;;;4898496;29;19911;-69
2022/06/17 05:54:30;;;;;;;;;;;26.40;44.90;;;;;;4898697;29;19912;-70
2022/06/17 05:56:56;;;;;;;;;;;27.00;44.70;;;;;;4902163;29;20068;-68
2022/06/17 05:59:22;;;;;;;;;;;27.50;43.70;;;;;;4902249;29;19919;-69
2022/06/17 06:01:47;;;;;;;;;;;27.90;42.30;;;;;;4902223;29;19922;-68
2022/06/17 06:04:13;;;;;;;;;;;28.10;42.00;;;;;;4902323;29;19967;-68
2022/06/17 06:06:38;;;;;;;;;;;28.00;41.90;;;;;;4902131;29;20364;-69
2022/06/17 06:09:04;;;;;;;;;;;28.00;41.90;;;;;;4901884;29;19990;-66
2022/06/17 06:11:30;;;;;;;;;;;28.10;42.40;;;;;;4901851;29;19975;-72
2022/06/17 06:13:55;;;;;;;;;;;28.10;42.40;;;;;;4901914;29;19912;-68
2022/06/17 06:16:21;;;;;;;;;;;28.40;42.10;;;;;;4901837;29;20395;-66
2022/06/17 06:18:47;;;;;;;;;;;28.70;42.00;;;;;;4901986;29;19912;-71
2022/06/17 06:21:13;;;;;;;;;;;29.00;41.10;;;;;;4901712;29;19924;-70
2022/06/17 06:23:39;;;;;;;;;;;29.20;40.80;;;;;;4902012;29;19971;-70
2022/06/17 06:26:07;;;;;;;;;;;29.40;40.70;;;;;;4897104;29;20387;-69
2022/06/17 06:28:33;;;;;;;;;;;29.40;40.50;;;;;;4892753;29;20006;-70
2022/06/17 06:31:04;;;;;;;;;;;29.40;40.20;;;;;;4891167;29;19995;-69
2022/06/17 06:33:30;;;;;;;;;;;29.50;40.20;;;;;;4891292;29;19915;-66
2022/06/17 06:35:55;;;;;;;;;;;29.60;40.30;;;;;;4892703;29;19926;-65
2022/06/17 06:38:21;;;;;;;;;;;29.50;40.20;;;;;;4881608;29;19918;-68
2022/06/17 06:40:47;;;;;;;;;;;29.50;40.70;;;;;;4882662;29;20003;-68
2022/06/17 06:43:15;;;;;;;;;;;29.50;40.70;;;;;;4882954;29;19961;-64
2022/06/17 06:45:41;;;;;;;;;;;29.60;40.10;;;;;;4881600;29;20360;-65
2022/06/17 06:48:07;;;;;;;;;;;29.60;40.50;;;;;;4883049;29;19920;-65
2022/06/17 06:50:34;;;;;;;;;;;29.60;40.30;;;;;;4882737;29;19912;-66
2022/06/17 06:52:59;;;;;;;;;;;29.70;40.50;;;;;;4882638;29;20373;-65
2022/06/17 06:55:25;;;;;;;;;;;29.90;40.50;;;;;;4882691;29;19912;-65
2022/06/17 06:57:52;;;;;;;;;;;30.10;39.90;;;;;;4881197;29;19923;-65
2022/06/17 07:00:20;;;;;;;;;;;30.30;40.10;;;;;;4882462;29;19984;-65
2022/06/17 07:02:45;;;;;;;;;;;30.40;39.10;;;;;;4882639;29;20375;-63
2022/06/17 07:05:11;;;;;;;;;;;30.60;37.60;;;;;;4882417;29;20006;-64
2022/06/17 07:07:38;;;;;;;;;;;30.50;38.60;;;;;;4881804;29;20371;-64
2022/06/17 07:10:04;;;;;;;;;;;30.50;38.40;;;;;;4882513;29;19999;-64
2022/06/17 07:12:30;;;;;;;;;;;30.50;37.80;;;;;;4881053;29;19922;-65
2022/06/17 07:14:55;;;;;;;;;;;30.50;38.10;;;;;;4882639;29;19999;-66
2022/06/17 07:17:21;;;;;;;;;;;30.50;38.40;;;;;;4882053;29;19927;-63
2022/06/17 07:19:47;;;;;;;;;;;30.50;38.40;;;;;;4882065;29;19912;-63
2022/06/17 07:22:12;;;;;;;;;;;30.60;38.40;;;;;;4881948;29;19931;-65
2022/06/17 07:24:38;;;;;;;;;;;30.70;38.10;;;;;;4886847;29;19922;-69
2022/06/17 07:27:04;;;;;;;;;;;30.50;38.00;;;;;;4891308;29;19963;-68
2022/06/17 07:29:29;;;;;;;;;;;30.60;38.50;;;;;;4892191;29;19963;-68
2022/06/17 07:31:55;;;;;;;;;;;30.70;38.60;;;;;;4891174;29;20262;-67
2022/06/17 07:34:20;;;;;;;;;;;30.80;38.40;;;;;;4890067;29;19927;-70
2022/06/17 07:42:14;;;;;;;;;;;30.90;37.70;;;;;;4892011;29;19984;-71
2022/06/17 07:44:40;;;;;;;;;;;30.80;37.40;;;;;;4891377;29;20372;-69
2022/06/17 07:47:05;;;;;;;;;;;30.90;37.60;;;;;;4889457;29;20143;-70
2022/06/17 07:49:31;;;;;;;;;;;31.00;37.60;;;;;;4894943;29;19967;-71
2022/06/17 07:51:57;;;;;;;;;;;30.70;37.20;;;;;;4900421;29;19912;-72
2022/06/17 07:54:22;;;;;;;;;;;30.70;37.70;;;;;;4899833;29;19955;-68
2022/06/17 07:56:48;;;;;;;;;;;30.70;37.20;;;;;;4890458;29;19923;-67
2022/06/17 07:59:13;;;;;;;;;;;30.70;37.20;;;;;;4881394;29;19912;-65
2022/06/17 08:01:39;;;;;;;;;;;30.70;37.10;;;;;;4881414;29;20365;-71
2022/06/17 08:04:05;;;;;;;;;;;30.80;37.10;;;;;;4881788;29;19983;-64
2022/06/17 08:06:31;;;;;;;;;;;30.90;37.20;;;;;;4881370;29;20368;-69
2022/06/17 08:08:56;;;;;;;;;;;31.10;37.10;;;;;;4881119;29;20272;-62
2022/06/17 08:11:22;;;;;;;;;;;31.20;36.50;;;;;;4881154;29;19911;-64
2022/06/17 08:13:49;;;;;;;;;;;31.30;36.10;;;;;;4881196;29;19912;-65
2022/06/17 08:16:15;;;;;;;;;;;31.30;36.40;;;;;;4880962;29;20346;-68
2022/06/17 08:18:43;;;;;;;;;;;31.40;35.80;;;;;;4879448;29;20327;-67
2022/06/17 08:21:09;;;;;;;;;;;31.40;35.30;;;;;;4879698;29;19924;-65
2022/06/17 08:23:35;;;;;;;;;;;31.30;35.10;;;;;;4881325;29;19922;-65
2022/06/17 08:26:01;;;;;;;;;;;31.30;35.80;;;;;;4881237;29;20022;-68
2022/06/17 08:28:26;;;;;;;;;;;31.30;35.20;;;;;;4880827;29;19964;-64
2022/06/17 08:30:54;;;;;;;;;;;31.40;34.70;;;;;;4880850;29;19915;-73
2022/06/17 08:33:29;;;;;;;;;;;31.50;34.10;;;;;;4881077;29;19916;-64
2022/06/17 08:35:58;;;;;;;;;;;31.60;34.10;;;;;;4881061;29;19953;-66
2022/06/17 08:38:26;;;;;;;;;;;31.40;33.70;;;;;;4881034;29;20277;-63
2022/06/17 08:40:52;;;;;;;;;;;31.30;33.90;;;;;;4880981;29;19912;-64
2022/06/17 08:43:36;;;;;;;;;;;31.20;33.30;;;;;;4880651;29;19912;-65
2022/06/17 08:46:22;;;;;;;;;;;31.20;33.40;;;;;;4880682;29;20329;-69
2022/06/17 08:49:03;;;;;;;;;;;31.20;33.70;;;;;;4870523;29;20003;-63
2022/06/17 08:51:49;;;;;;;;;;;31.30;32.40;;;;;;4880825;29;19912;-62
2022/06/17 08:54:30;;;;;;;;;;;31.30;32.60;;;;;;4880714;29;19916;-64
2022/06/17 08:56:55;;;;;;;;;;;31.30;32.10;;;;;;4885544;29;19920;-65
2022/06/17 08:59:21;;;;;;;;;;;31.30;32.30;;;;;;4887976;29;19976;-65
2022/06/17 09:01:57;;;;;;;;;;;31.20;32.40;;;;;;4884027;29;20015;-64
2022/06/17 09:04:28;;;;;;;;;;;31.20;33.10;;;;;;4883022;29;19912;-65
2022/06/17 09:07:18;;;;;;;;;;;31.20;31.80;;;;;;4881742;29;19911;-65
2022/06/17 09:09:46;;;;;;;;;;;31.10;32.10;;;;;;4881836;29;19912;-64
2022/06/17 09:12:27;;;;;;;;;;;31.10;31.80;;;;;;4880589;29;19912;-64
2022/06/17 09:15:10;;;;;;;;;;;30.90;31.60;;;;;;4879002;29;20281;-64
2022/06/17 09:18:04;;;;;;;;;;;31.20;31.60;;;;;;4880161;29;20011;-66
2022/06/17 09:20:33;;;;;;;;;;;31.20;30.40;;;;;;4880113;29;19922;-64
2022/06/17 09:23:01;;;;;;;;;;;31.20;30.10;;;;;;4880593;29;20313;-65
2022/06/17 09:25:31;;;;;;;;;;;31.00;30.40;;;;;;4880258;29;19912;-63
2022/06/17 09:27:57;;;;;;;;;;;30.80;31.10;;;;;;4880365;29;20348;-67
2022/06/17 09:30:25;;;;;;;;;;;30.80;31.60;;;;;;4880153;29;19939;-64
2022/06/17 09:32:54;;;;;;;;;;;30.90;31.80;;;;;;4880000;29;19911;-68
2022/06/17 09:35:35;;;;;;;;;;;31.00;32.30;;;;;;4880092;29;19912;-64
2022/06/17 09:38:01;;;;;;;;;;;31.10;31.20;;;;;;4880042;29;19962;-64
2022/06/17 09:40:35;;;;;;;;;;;31.20;32.00;;;;;;4879969;29;19939;-64
2022/06/17 09:43:05;;;;;;;;;;;31.30;32.20;;;;;;4880079;29;19999;-66
2022/06/17 09:45:34;;;;;;;;;;;31.10;30.80;;;;;;4880217;29;19920;-66
2022/06/17 09:48:09;;;;;;;;;;;31.00;29.40;;;;;;4879961;29;19971;-65
2022/06/17 09:50:41;;;;;;;;;;;31.00;30.80;;;;;;4880612;29;19912;-65
2022/06/17 09:53:20;;;;;;;;;;;31.00;31.30;;;;;;4880100;29;20420;-64
2022/06/17 09:55:53;;;;;;;;;;;31.10;31.00;;;;;;4878690;29;19926;-66
2022/06/17 09:58:18;;;;;;;;;;;30.90;31.30;;;;;;4880909;29;20408;-66
2022/06/17 10:00:49;;;;;;;;;;;30.90;31.40;;;;;;4879817;29;19951;-64
2022/06/17 10:03:25;;;;;;;;;;;30.90;30.90;;;;;;4880164;29;19912;-65
2022/06/17 10:06:09;;;;;;;;;;;30.90;31.10;;;;;;4879890;29;19918;-67
2022/06/17 10:08:37;;;;;;;;;;;30.90;30.10;;;;;;4879904;29;20007;-66
2022/06/17 10:11:03;;;;;;;;;;;31.10;30.00;;;;;;4879845;29;19912;-63
2022/06/17 10:13:35;;;;;;;;;;;31.10;29.90;;;;;;4879860;29;19919;-67
2022/06/17 10:19:10;;;;;;;;;;;31.20;29.80;;;;;;4879751;29;19958;-63
2022/06/17 10:21:39;;;;;;;;;;;31.40;30.30;;;;;;4879719;29;19924;-66
2022/06/17 10:24:13;;;;;;;;;;;31.20;29.50;;;;;;4879634;29;19918;-63
2022/06/17 10:26:42;;;;;;;;;;;31.00;30.00;;;;;;4879832;29;20413;-63
2022/06/17 10:29:26;;;;;;;;;;;30.90;30.10;;;;;;4879745;29;19912;-64
2022/06/17 10:31:51;;;;;;;;;;;31.10;29.80;;;;;;4880199;29;20321;-63
2022/06/17 10:34:27;;;;;;;;;;;31.20;30.00;;;;;;4880258;29;19944;-69
2022/06/17 10:36:54;;;;;;;;;;;31.20;29.80;;;;;;4879629;29;20018;-68
2022/06/17 10:39:22;;;;;;;;;;;31.20;30.00;;;;;;4879962;29;19963;-66
2022/06/17 10:41:47;;;;;;;;;;;31.30;29.70;;;;;;4879995;29;19912;-64
2022/06/17 10:44:15;;;;;;;;;;;31.40;29.70;;;;;;4882658;29;19919;-66
2022/06/17 10:46:45;;;;;;;;;;;31.40;29.20;;;;;;4887685;29;19922;-67
2022/06/17 10:49:13;;;;;;;;;;;31.40;29.30;;;;;;4892643;29;19919;-70
2022/06/17 10:51:39;;;;;;;;;;;31.40;29.20;;;;;;4891904;29;20277;-69
2022/06/17 10:54:13;;;;;;;;;;;31.40;29.20;;;;;;4890745;29;20386;-65
2022/06/17 10:56:55;;;;;;;;;;;31.40;29.70;;;;;;4895897;29;19927;-70
2022/06/17 10:59:31;;;;;;;;;;;31.30;29.90;;;;;;4901330;29;19922;-68
2022/06/17 11:01:58;;;;;;;;;;;31.30;29.70;;;;;;4901389;29;19915;-64
2022/06/17 11:04:28;;;;;;;;;;;31.20;29.40;;;;;;4901268;29;20052;-67
2022/06/17 11:07:00;;;;;;;;;;;31.20;29.50;;;;;;4900232;29;20268;-64
2022/06/17 11:09:28;;;;;;;;;;;31.20;29.30;;;;;;4901261;29;19919;-65
2022/06/17 11:12:10;;;;;;;;;;;31.20;29.80;;;;;;4901110;29;20264;-65
2022/06/17 11:14:41;;;;;;;;;;;31.20;30.00;;;;;;4898313;29;20284;-68
2022/06/17 11:17:30;;;;;;;;;;;31.30;30.00;;;;;;4900186;29;19919;-64
2022/06/17 11:19:58;;;;;;;;;;;31.20;29.80;;;;;;4888966;29;20263;-65
2022/06/17 11:22:30;;;;;;;;;;;31.10;29.40;;;;;;4900324;29;20023;-63
2022/06/17 11:24:58;;;;;;;;;;;31.00;29.80;;;;;;4899136;29;19911;-62
2022/06/17 11:27:26;;;;;;;;;;;31.00;29.60;;;;;;4900430;29;19919;-65
2022/06/17 11:29:53;;;;;;;;;;;31.00;29.70;;;;;;4900197;29;19959;-66
2022/06/17 11:32:19;;;;;;;;;;;31.00;29.50;;;;;;4900104;29;19962;-64
2022/06/17 11:34:49;;;;;;;;;;;31.10;29.90;;;;;;4900249;29;19915;-66
2022/06/17 11:37:14;;;;;;;;;;;31.10;29.40;;;;;;4899954;29;19975;-63
2022/06/17 11:39:40;;;;;;;;;;;31.10;29.50;;;;;;4899991;29;19916;-65
2022/06/17 11:42:20;;;;;;;;;;;31.00;29.70;;;;;;4900010;29;19912;-66
2022/06/17 11:44:50;;;;;;;;;;;31.00;30.00;;;;;;4900014;29;19916;-66
2022/06/17 11:47:21;;;;;;;;;;;31.10;30.10;;;;;;4899316;29;20440;-63
2022/06/17 11:49:47;;;;;;;;;;;31.10;30.10;;;;;;4898092;29;19935;-65
2022/06/17 11:52:22;;;;;;;;;;;31.10;30.30;;;;;;4896403;29;19962;-65
2022/06/17 11:54:49;;;;;;;;;;;31.10;30.10;;;;;;4895540;29;19921;-67
2022/06/17 11:57:18;;;;;;;;;;;31.10;30.90;;;;;;4899104;29;19956;-65
2022/06/17 11:59:45;;;;;;;;;;;31.10;31.10;;;;;;4896630;29;19912;-65
2022/06/17 12:02:11;;;;;;;;;;;31.10;31.00;;;;;;4899243;29;20317;-65
2022/06/17 12:04:42;;;;;;;;;;;31.10;32.30;;;;;;4899032;29;19912;-65
2022/06/17 12:07:27;;;;;;;;;;;31.00;33.40;;;;;;4894533;29;20436;-65
2022/06/17 12:09:56;;;;;;;;;;;31.00;34.00;;;;;;4899425;29;19912;-66
2022/06/17 12:12:22;;;;;;;;;;;31.00;34.40;;;;;;4899506;29;19911;-65
2022/06/17 12:15:02;;;;;;;;;;;31.00;33.50;;;;;;4899253;29;19912;-64
2022/06/17 12:17:28;;;;;;;;;;;31.00;33.90;;;;;;4887208;29;19975;-66
2022/06/17 12:19:55;;;;;;;;;;;31.00;33.50;;;;;;4899041;29;19933;-64
2022/06/17 12:22:28;;;;;;;;;;;31.00;33.50;;;;;;4889005;29;19931;-67
2022/06/17 12:25:00;;;;;;;;;;;31.00;33.50;;;;;;4898739;29;20018;-64
2022/06/17 12:27:33;;;;;;;;;;;31.00;32.80;;;;;;4895941;29;20340;-63
2022/06/17 12:30:04;;;;;;;;;;;31.10;33.00;;;;;;4898615;29;19915;-63
2022/06/17 12:32:30;;;;;;;;;;;31.10;33.00;;;;;;4898361;29;19971;-64
2022/06/17 12:35:17;;;;;;;;;;;31.10;33.00;;;;;;4898459;29;19916;-64
2022/06/17 12:38:01;;;;;;;;;;;31.00;32.50;;;;;;4897594;29;19984;-67
2022/06/17 12:40:37;;;;;;;;;;;31.00;33.00;;;;;;4898595;29;19955;-64
2022/06/17 12:43:02;;;;;;;;;;;31.00;33.00;;;;;;4898540;29;20014;-65
2022/06/17 12:45:28;;;;;;;;;;;31.00;33.00;;;;;;4897990;29;19963;-67
2022/06/17 12:47:53;;;;;;;;;;;30.90;33.30;;;;;;4898485;29;19911;-64
2022/06/17 12:53:15;;;;;;;;;;;30.90;33.90;;;;;;4897451;29;20004;-70
2022/06/17 12:55:41;;;;;;;;;;;30.90;34.00;;;;;;4897894;29;20272;-66
2022/06/17 12:58:15;;;;;;;;;;;30.90;33.50;;;;;;4897972;29;19911;-65
2022/06/17 13:00:56;;;;;;;;;;;30.80;33.30;;;;;;4897850;29;19927;-65
2022/06/17 13:03:24;;;;;;;;;;;30.80;33.60;;;;;;4889606;29;20273;-68
2022/06/17 13:05:52;;;;;;;;;;;30.70;33.70;;;;;;4889302;29;19938;-68
2022/06/17 13:08:36;;;;;;;;;;;30.70;33.60;;;;;;4889476;29;20268;-67
2022/06/17 13:11:11;;;;;;;;;;;30.60;33.20;;;;;;4890094;29;20379;-69
2022/06/17 13:13:55;;;;;;;;;;;30.50;33.40;;;;;;4897052;29;19912;-68
2022/06/17 13:16:26;;;;;;;;;;;30.50;33.60;;;;;;4898946;29;20033;-67
2022/06/17 13:19:18;;;;;;;;;;;30.40;34.40;;;;;;4889454;29;19988;-66
2022/06/17 13:21:48;;;;;;;;;;;30.30;33.70;;;;;;4889746;29;19927;-62
2022/06/17 13:24:16;;;;;;;;;;;30.20;36.10;;;;;;4889861;29;20046;-66
2022/06/17 13:26:56;;;;;;;;;;;30.00;37.00;;;;;;4888837;29;20388;-65
2022/06/17 13:29:33;;;;;;;;;;;30.00;36.90;;;;;;4889779;29;20269;-66
2022/06/17 13:32:05;;;;;;;;;;;29.80;37.90;;;;;;4889817;29;19950;-66
2022/06/17 13:34:40;;;;;;;;;;;29.70;37.60;;;;;;4892976;29;20002;-68
2022/06/17 13:37:12;;;;;;;;;;;29.70;38.70;;;;;;4894720;29;19923;-67
2022/06/17 13:39:41;;;;;;;;;;;29.60;37.90;;;;;;4887765;29;20288;-65
2022/06/17 13:42:08;;;;;;;;;;;29.50;39.30;;;;;;4886481;29;19912;-66
2022/06/17 13:44:46;;;;;;;;;;;29.40;40.60;;;;;;4887946;29;20222;-63
2022/06/17 13:47:14;;;;;;;;;;;29.40;41.70;;;;;;4889618;29;19911;-65
2022/06/17 13:49:59;;;;;;;;;;;29.40;41.30;;;;;;4889063;29;19919;-70
2022/06/17 13:52:30;;;;;;;;;;;29.50;39.90;;;;;;4890253;29;20343;-65
2022/06/17 13:55:14;;;;;;;;;;;29.60;36.70;;;;;;4895738;29;20376;-67
2022/06/17 13:57:44;;;;;;;;;;;29.70;35.00;;;;;;4891271;29;19927;-67
2022/06/17 14:00:22;;;;;;;;;;;29.70;35.00;;;;;;4894056;29;19912;-66
2022/06/17 14:02:50;;;;;;;;;;;29.80;35.30;;;;;;4892772;29;19911;-64
2022/06/17 14:05:25;;;;;;;;;;;29.90;34.70;;;;;;4892754;29;19918;-63
2022/06/17 14:07:51;;;;;;;;;;;30.00;33.80;;;;;;4889650;29;19915;-66
2022/06/17 14:10:34;;;;;;;;;;;30.10;33.00;;;;;;4888628;29;20379;-64
2022/06/17 14:13:13;;;;;;;;;;;30.20;32.40;;;;;;4889142;29;19931;-67
2022/06/17 14:15:44;;;;;;;;;;;30.20;34.50;;;;;;4889301;29;19919;-69
2022/06/17 14:18:18;;;;;;;;;;;30.20;37.80;;;;;;4891823;29;19926;-64
2022/06/17 14:20:45;;;;;;;;;;;30.10;38.20;;;;;;4892398;29;20055;-64
2022/06/17 14:23:40;;;;;;;;;;;30.00;38.30;;;;;;4891009;29;19916;-66
2022/06/17 14:26:05;;;;;;;;;;;30.10;38.30;;;;;;4888188;29;20443;-67
2022/06/17 14:28:31;;;;;;;;;;;30.10;39.00;;;;;;4901823;29;20006;-68
2022/06/17 14:31:08;;;;;;;;;;;30.10;39.70;;;;;;4901207;29;19912;-67
2022/06/17 14:33:43;;;;;;;;;;;30.10;40.00;;;;;;4901645;29;19916;-68
2022/06/17 14:36:13;;;;;;;;;;;30.10;39.90;;;;;;4901676;29;19980;-70
2022/06/17 14:38:42;;;;;;;;;;;30.20;39.60;;;;;;4901739;29;19934;-68
2022/06/17 14:44:01;;;;;;;;;;;30.20;39.30;;;;;;4901364;29;20126;-68
2022/06/17 14:46:27;;;;;;;;;;;30.20;39.10;;;;;;4901780;29;19912;-68
2022/06/17 14:49:12;;;;;;;;;;;30.20;39.10;;;;;;4901385;29;19942;-68